createdAt,value
2018-06-14T00:01:48.410Z,2.93
2018-06-14T00:04:22.626Z,3.30
2018-06-14T00:06:56.914Z,2.77
2018-06-14T00:09:31.338Z,3.20
2018-06-14T00:12:05.498Z,3.33
2018-06-14T00:14:39.720Z,3.00
2018-06-14T00:17:14.024Z,3.67
2018-06-14T00:19:48.378Z,3.30
2018-06-14T00:22:22.694Z,3.30
2018-06-14T00:24:56.903Z,3.63
2018-06-14T00:27:31.126Z,3.67
2018-06-14T00:30:05.506Z,3.27
2018-06-14T00:32:39.820Z,2.87
2018-06-14T00:35:14.059Z,3.00
2018-06-14T00:37:48.353Z,2.80
2018-06-14T00:40:22.756Z,2.93
2018-06-14T00:42:57.122Z,2.87
2018-06-14T00:45:31.406Z,3.40
2018-06-14T00:48:05.674Z,2.77
2018-06-14T00:50:39.851Z,3.00
2018-06-14T00:53:14.287Z,3.20
2018-06-14T00:55:48.434Z,3.43
2018-06-14T00:58:22.690Z,3.37
2018-06-14T01:00:56.898Z,3.20
2018-06-14T01:03:31.275Z,3.23
2018-06-14T01:06:05.610Z,3.33
2018-06-14T01:08:39.968Z,3.30
2018-06-14T01:11:14.117Z,3.17
2018-06-14T01:13:48.388Z,3.80
2018-06-14T01:16:22.731Z,3.57
2018-06-14T01:18:57.170Z,3.53
2018-06-14T01:21:32.065Z,3.70
2018-06-14T01:24:06.719Z,3.60
2018-06-14T01:26:41.015Z,3.17
2018-06-14T01:29:15.626Z,3.93
2018-06-14T01:31:49.994Z,4.03
2018-06-14T01:34:24.281Z,3.87
2018-06-14T01:36:58.609Z,4.00
2018-06-14T01:39:32.915Z,3.63
2018-06-14T01:42:07.193Z,3.47
2018-06-14T01:44:41.467Z,3.67
2018-06-14T01:47:15.837Z,4.10
2018-06-14T01:49:50.115Z,3.90
2018-06-14T01:52:24.385Z,3.50
2018-06-14T01:54:58.701Z,3.97
2018-06-14T01:57:33.024Z,4.10
2018-06-14T02:00:07.406Z,3.87
2018-06-14T02:02:41.578Z,4.10
2018-06-14T02:05:15.940Z,3.80
2018-06-14T02:07:50.134Z,3.70
2018-06-14T02:10:24.806Z,3.87
2018-06-14T02:12:58.983Z,3.67
2018-06-14T02:15:33.195Z,4.23
2018-06-14T02:18:07.490Z,4.13
2018-06-14T02:20:41.822Z,4.20
2018-06-14T02:23:16.142Z,4.23
2018-06-14T02:25:50.365Z,4.43
2018-06-14T02:28:24.554Z,3.80
2018-06-14T02:30:58.829Z,4.20
2018-06-14T02:33:33.254Z,4.57
2018-06-14T02:36:07.533Z,4.10
2018-06-14T02:38:41.763Z,4.03
2018-06-14T02:41:16.065Z,4.10
2018-06-14T02:43:50.446Z,5.30
2018-06-14T02:46:24.598Z,4.63
2018-06-14T02:48:58.885Z,4.10
2018-06-14T02:51:33.194Z,4.17
2018-06-14T02:54:07.467Z,4.50
2018-06-14T02:56:41.693Z,4.57
2018-06-14T02:59:15.918Z,4.73
2018-06-14T03:01:50.197Z,4.37
2018-06-14T03:04:24.354Z,4.57
2018-06-14T03:06:58.611Z,4.43
2018-06-14T03:09:33.008Z,5.00
2018-06-14T03:12:07.327Z,4.33
2018-06-14T03:14:41.796Z,4.00
2018-06-14T03:17:16.179Z,4.57
2018-06-14T03:19:51.752Z,3.77
2018-06-14T03:22:26.649Z,3.80
2018-06-14T03:25:00.977Z,4.23
2018-06-14T03:27:35.317Z,4.90
2018-06-14T03:30:09.580Z,4.70
2018-06-14T03:32:43.887Z,4.50
2018-06-14T03:35:18.423Z,5.03
2018-06-14T03:37:52.988Z,4.33
2018-06-14T03:40:27.670Z,4.30
2018-06-14T03:43:01.871Z,4.47
2018-06-14T03:45:36.163Z,4.37
2018-06-14T03:48:10.869Z,4.73
2018-06-14T03:50:45.023Z,4.67
2018-06-14T03:53:19.153Z,4.77
2018-06-14T03:55:53.310Z,4.40
2018-06-14T03:58:27.795Z,4.03
2018-06-14T04:01:02.019Z,3.87
2018-06-14T04:03:36.301Z,3.43
2018-06-14T04:06:10.618Z,4.27
2018-06-14T04:08:44.907Z,4.30
2018-06-14T04:11:19.301Z,3.83
2018-06-14T04:13:53.615Z,4.13
2018-06-14T04:16:27.995Z,4.43
2018-06-14T04:19:02.328Z,3.83
2018-06-14T04:21:36.956Z,4.03
2018-06-14T04:24:11.171Z,3.93
2018-06-14T04:26:45.495Z,3.87
2018-06-14T04:29:19.474Z,3.60
2018-06-14T04:31:53.643Z,3.77
2018-06-14T04:34:27.827Z,3.70
2018-06-14T04:37:02.150Z,4.30
2018-06-14T04:39:36.570Z,4.50
2018-06-14T04:42:10.851Z,3.53
2018-06-14T04:44:45.019Z,3.93
2018-06-14T04:47:19.181Z,3.80
2018-06-14T04:49:53.502Z,4.10
2018-06-14T04:52:27.774Z,3.67
2018-06-14T04:55:02.110Z,4.13
2018-06-14T04:57:36.386Z,4.30
2018-06-14T05:00:10.516Z,3.97
2018-06-14T05:02:44.737Z,3.93
2018-06-14T05:05:19.030Z,3.87
2018-06-14T05:07:53.346Z,3.97
2018-06-14T05:10:27.811Z,4.37
2018-06-14T05:13:02.003Z,4.57
2018-06-14T05:15:36.266Z,3.97
2018-06-14T05:18:10.584Z,4.20
2018-06-14T05:20:44.835Z,4.23
2018-06-14T05:23:19.107Z,4.40
2018-06-14T05:25:53.419Z,4.80
2018-06-14T05:28:27.653Z,4.13
2018-06-14T05:31:01.974Z,4.00
2018-06-14T05:33:36.118Z,4.00
2018-06-14T05:36:10.407Z,4.27
2018-06-14T05:38:44.652Z,3.60
2018-06-14T05:41:18.953Z,4.27
2018-06-14T05:43:53.278Z,4.50
2018-06-14T05:46:27.521Z,4.07
2018-06-14T05:49:01.930Z,3.90
2018-06-14T05:51:36.244Z,4.43
2018-06-14T05:54:10.479Z,4.33
2018-06-14T05:56:44.748Z,4.23
2018-06-14T05:59:19.063Z,4.00
2018-06-14T06:01:53.498Z,3.53
2018-06-14T06:04:27.839Z,3.90
2018-06-14T06:07:02.039Z,3.93
2018-06-14T06:09:36.358Z,3.70
2018-06-14T06:12:10.638Z,4.03
2018-06-14T06:14:44.918Z,4.20
2018-06-14T06:17:19.253Z,3.70
2018-06-14T06:19:53.614Z,3.47
2018-06-14T06:22:27.956Z,4.53
2018-06-14T06:25:02.243Z,4.20
2018-06-14T06:27:36.543Z,4.30
2018-06-14T06:30:10.695Z,4.37
2018-06-14T06:32:44.927Z,3.93
2018-06-14T06:35:19.238Z,3.70
2018-06-14T06:37:53.409Z,3.90
2018-06-14T06:40:27.726Z,3.97
2018-06-14T06:43:02.084Z,4.20
2018-06-14T06:45:36.212Z,4.40
2018-06-14T06:48:10.629Z,4.30
2018-06-14T06:50:44.983Z,4.40
2018-06-14T06:53:19.303Z,5.13
2018-06-14T06:55:53.532Z,4.23
2018-06-14T06:58:27.828Z,4.40
2018-06-14T07:01:02.140Z,4.63
2018-06-14T07:03:36.439Z,5.17
2018-06-14T07:06:10.851Z,4.87
2018-06-14T07:08:45.055Z,5.27
2018-06-14T07:11:19.531Z,5.37
2018-06-14T07:13:53.843Z,5.63
2018-06-14T07:16:28.040Z,5.50
2018-06-14T07:19:02.230Z,5.87
2018-06-14T07:21:36.670Z,5.57
2018-06-14T07:24:10.903Z,5.20
2018-06-14T07:26:45.190Z,5.90
2018-06-14T07:29:19.338Z,5.23
2018-06-14T07:31:53.510Z,5.67
2018-06-14T07:34:27.913Z,5.70
2018-06-14T07:37:02.150Z,5.70
2018-06-14T07:39:36.426Z,5.83
2018-06-14T07:42:10.691Z,5.83
2018-06-14T07:44:44.979Z,5.83
2018-06-14T07:47:19.130Z,5.70
2018-06-14T07:49:53.146Z,6.43
2018-06-14T07:52:27.463Z,6.53
2018-06-14T07:55:01.694Z,6.97
2018-06-14T07:57:35.975Z,7.10
2018-06-14T08:00:10.238Z,6.90
2018-06-14T08:02:44.577Z,6.90
2018-06-14T08:05:18.712Z,7.03
2018-06-14T08:07:52.935Z,6.60
2018-06-14T08:10:27.147Z,6.63
2018-06-14T08:13:01.476Z,6.70
2018-06-14T08:15:35.622Z,7.03
2018-06-14T08:18:10.071Z,7.37
2018-06-14T08:20:44.364Z,7.80
2018-06-14T08:23:18.517Z,8.97
2018-06-14T08:25:52.706Z,9.47
2018-06-14T08:28:27.070Z,9.63
2018-06-14T08:31:01.368Z,9.70
2018-06-14T08:33:35.614Z,8.80
2018-06-14T08:36:09.822Z,9.03
2018-06-14T08:38:43.982Z,7.60
2018-06-14T08:41:18.353Z,8.03
2018-06-14T08:43:52.750Z,7.47
2018-06-14T08:46:27.112Z,7.73
2018-06-14T08:49:01.820Z,7.30
2018-06-14T08:51:36.298Z,8.00
2018-06-14T08:54:10.648Z,8.53
2018-06-14T08:56:45.058Z,9.43
2018-06-14T08:59:19.797Z,9.37
2018-06-14T09:01:54.103Z,7.43
2018-06-14T09:04:28.327Z,7.30
2018-06-14T09:07:03.985Z,7.03
2018-06-14T09:09:38.176Z,6.73
2018-06-14T09:12:12.424Z,7.30
2018-06-14T09:14:46.862Z,7.63
2018-06-14T09:17:20.961Z,6.33
2018-06-14T09:19:55.245Z,5.90
2018-06-14T09:22:29.619Z,6.53
2018-06-14T09:25:03.809Z,6.30
2018-06-14T09:27:37.981Z,5.90
2018-06-14T09:30:12.416Z,5.43
2018-06-14T09:32:46.806Z,6.00
2018-06-14T09:35:21.203Z,6.20
2018-06-14T09:37:55.532Z,7.87
2018-06-14T09:40:29.654Z,6.77
2018-06-14T09:43:04.026Z,7.87
2018-06-14T09:45:38.247Z,8.03
2018-06-14T09:48:12.762Z,7.07
2018-06-14T09:50:47.074Z,6.07
2018-06-14T09:53:21.350Z,6.50
2018-06-14T09:55:55.657Z,6.17
2018-06-14T09:58:29.725Z,6.93
2018-06-14T10:01:03.907Z,6.03
2018-06-14T10:03:38.274Z,6.33
2018-06-14T10:06:12.544Z,6.43
2018-06-14T10:08:47.014Z,5.80
2018-06-14T10:11:21.154Z,5.50
2018-06-14T10:13:55.533Z,5.40
2018-06-14T10:16:29.811Z,5.63
2018-06-14T10:19:04.487Z,5.90
2018-06-14T10:21:38.913Z,6.23
2018-06-14T10:24:13.297Z,5.80
2018-06-14T10:26:47.622Z,5.47
2018-06-14T10:29:21.901Z,5.67
2018-06-14T10:31:56.173Z,5.73
2018-06-14T10:34:30.518Z,5.57
2018-06-14T10:37:04.695Z,6.10
2018-06-14T10:39:38.999Z,6.17
2018-06-14T10:42:13.319Z,5.77
2018-06-14T10:44:47.602Z,5.37
2018-06-14T10:47:21.901Z,5.80
2018-06-14T10:49:56.319Z,6.23
2018-06-14T10:52:30.606Z,6.40
2018-06-14T10:55:04.765Z,6.33
2018-06-14T10:57:39.031Z,6.23
2018-06-14T11:00:13.432Z,5.33
2018-06-14T11:02:47.962Z,5.70
2018-06-14T11:05:22.246Z,4.87
2018-06-14T11:07:56.555Z,4.90
2018-06-14T11:10:30.814Z,4.40
2018-06-14T11:13:05.118Z,5.60
2018-06-14T11:15:39.301Z,4.70
2018-06-14T11:18:13.775Z,5.27
2018-06-14T11:20:48.171Z,4.60
2018-06-14T11:23:22.480Z,4.30
2018-06-14T11:25:56.733Z,4.00
2018-06-14T11:28:30.893Z,4.70
2018-06-14T11:31:05.182Z,4.77
2018-06-14T11:33:39.515Z,4.73
2018-06-14T11:36:13.825Z,5.40
2018-06-14T11:38:48.192Z,4.47
2018-06-14T11:41:22.530Z,5.57
2018-06-14T11:43:56.734Z,4.77
2018-06-14T11:46:31.068Z,4.67
2018-06-14T11:49:05.371Z,5.57
2018-06-14T11:51:39.703Z,4.90
2018-06-14T11:54:14.093Z,4.03
2018-06-14T11:56:48.172Z,4.60
2018-06-14T11:59:22.422Z,4.43
2018-06-14T12:01:56.699Z,4.83
2018-06-14T12:04:30.988Z,4.93
2018-06-14T12:07:05.316Z,4.80
2018-06-14T12:09:39.546Z,4.90
2018-06-14T12:12:14.343Z,5.00
2018-06-14T12:14:48.630Z,4.63
2018-06-14T12:17:22.758Z,4.97
2018-06-14T12:19:56.948Z,4.77
2018-06-14T12:22:31.267Z,4.67
2018-06-14T12:25:05.575Z,5.27
2018-06-14T12:27:39.891Z,5.30
2018-06-14T12:30:14.163Z,4.30
2018-06-14T12:32:48.444Z,4.67
2018-06-14T12:35:22.751Z,3.77
2018-06-14T12:37:57.158Z,3.93
2018-06-14T12:40:31.506Z,4.00
2018-06-14T12:43:05.829Z,4.13
2018-06-14T12:45:40.146Z,3.70
2018-06-14T12:48:14.456Z,3.10
2018-06-14T12:50:49.125Z,4.00
2018-06-14T12:53:23.385Z,4.00
2018-06-14T12:55:57.678Z,3.87
2018-06-14T12:58:32.029Z,3.83
2018-06-14T13:01:06.266Z,3.30
2018-06-14T13:03:40.581Z,3.70
2018-06-14T13:06:14.913Z,3.50
2018-06-14T13:08:49.344Z,11.03
2018-06-14T13:11:23.490Z,4.50
2018-06-14T13:13:57.799Z,4.27
2018-06-14T13:16:32.115Z,4.97
2018-06-14T13:19:06.215Z,4.60
2018-06-14T13:21:40.381Z,4.27
2018-06-14T13:24:14.478Z,4.20
2018-06-14T13:26:48.871Z,4.40
2018-06-14T13:29:23.146Z,3.80
2018-06-14T13:31:57.435Z,3.60
2018-06-14T13:34:32.018Z,5.53
2018-06-14T13:37:06.300Z,5.63
2018-06-14T13:39:40.750Z,5.23
2018-06-14T13:42:15.133Z,4.80
2018-06-14T13:44:49.406Z,4.30
2018-06-14T13:47:23.702Z,4.97
2018-06-14T13:49:58.011Z,4.83
2018-06-14T13:52:32.534Z,4.20
2018-06-14T13:55:06.563Z,5.20
2018-06-14T13:57:40.554Z,5.40
2018-06-14T14:00:14.738Z,5.40
2018-06-14T14:02:49.005Z,5.03
2018-06-14T14:05:23.298Z,5.50
2018-06-14T14:07:57.490Z,4.67
2018-06-14T14:10:31.736Z,5.50
2018-06-14T14:13:06.026Z,5.10
2018-06-14T14:15:40.418Z,5.40
2018-06-14T14:18:14.647Z,6.47
2018-06-14T14:20:59.006Z,5.40
2018-06-14T14:23:36.257Z,5.93
2018-06-14T14:26:10.701Z,5.47
2018-06-14T14:31:21.390Z,5.43
2018-06-14T14:33:55.642Z,5.47
2018-06-14T14:36:29.949Z,4.80
2018-06-14T14:39:07.216Z,6.00
2018-06-14T14:41:41.890Z,4.80
2018-06-14T14:44:16.056Z,5.60
2018-06-14T14:46:50.355Z,5.80
2018-06-14T14:49:24.749Z,4.93
2018-06-14T14:51:58.951Z,6.00
2018-06-14T14:54:33.118Z,5.87
2018-06-14T14:57:07.385Z,6.03
2018-06-14T14:59:41.581Z,6.80
2018-06-14T15:02:15.910Z,7.20
2018-06-14T15:04:50.135Z,6.60
2018-06-14T15:07:24.510Z,6.40
2018-06-14T15:09:58.839Z,7.20
2018-06-14T15:12:33.195Z,5.67
2018-06-14T15:15:07.657Z,5.57
2018-06-14T15:17:41.949Z,5.90
2018-06-14T15:20:16.059Z,6.03
2018-06-14T15:22:50.294Z,6.37
2018-06-14T15:25:24.623Z,6.83
2018-06-14T15:27:59.038Z,7.70
2018-06-14T15:30:33.323Z,6.80
2018-06-14T15:33:07.660Z,7.27
2018-06-14T15:35:41.960Z,7.63
2018-06-14T15:38:16.344Z,8.00
2018-06-14T15:40:50.590Z,7.70
2018-06-14T15:43:24.883Z,7.53
2018-06-14T15:45:59.123Z,7.60
2018-06-14T15:48:33.360Z,8.47
2018-06-14T15:51:07.547Z,7.80
2018-06-14T15:53:41.940Z,8.03
2018-06-14T15:56:33.773Z,9.17
2018-06-14T15:59:09.258Z,7.93
2018-06-14T16:01:43.587Z,7.73
2018-06-14T16:04:17.816Z,7.97
2018-06-14T16:06:52.254Z,7.33
2018-06-14T16:09:26.487Z,8.10
2018-06-14T16:12:00.870Z,7.10
2018-06-14T16:14:35.287Z,7.20
2018-06-14T16:17:09.651Z,7.83
2018-06-14T16:19:43.973Z,6.73
2018-06-14T16:22:18.303Z,7.60
2018-06-14T16:24:52.614Z,7.30
2018-06-14T16:27:26.921Z,7.07
2018-06-14T16:30:01.293Z,7.10
2018-06-14T16:32:35.623Z,7.83
2018-06-14T16:35:09.795Z,8.47
2018-06-14T16:37:44.080Z,8.03
2018-06-14T16:40:18.469Z,8.60
2018-06-14T16:42:52.698Z,8.70
2018-06-14T16:45:26.866Z,8.40
2018-06-14T16:48:01.282Z,8.63
2018-06-14T16:50:35.459Z,9.13
2018-06-14T16:53:09.680Z,9.70
2018-06-14T16:55:43.889Z,9.57
2018-06-14T16:58:18.179Z,9.80
2018-06-14T17:00:52.427Z,10.60
2018-06-14T17:03:26.785Z,10.40
2018-06-14T17:06:01.024Z,11.67
2018-06-14T17:08:35.199Z,11.93
2018-06-14T17:11:09.463Z,11.73
2018-06-14T17:13:43.751Z,11.97
2018-06-14T17:16:17.977Z,11.93
2018-06-14T17:18:52.306Z,12.10
2018-06-14T17:21:26.788Z,12.17
2018-06-14T17:24:00.996Z,11.30
2018-06-14T17:26:35.280Z,11.77
2018-06-14T17:29:09.618Z,10.70
2018-06-14T17:31:43.943Z,10.50
2018-06-14T17:34:18.259Z,11.63
2018-06-14T17:36:52.565Z,11.20
2018-06-14T17:39:26.878Z,11.93
2018-06-14T17:42:01.330Z,12.37
2018-06-14T17:44:35.516Z,12.37
2018-06-14T17:47:09.870Z,15.27
2018-06-14T17:49:44.283Z,12.80
2018-06-14T17:52:19.017Z,11.50
2018-06-14T17:54:53.390Z,12.40
2018-06-14T17:57:27.714Z,13.13
2018-06-14T18:00:01.972Z,12.13
2018-06-14T18:02:36.383Z,11.10
2018-06-14T18:05:10.622Z,12.13
2018-06-14T18:07:44.954Z,12.70
2018-06-14T18:10:19.312Z,14.17
2018-06-14T18:12:53.630Z,12.03
2018-06-14T18:15:27.915Z,12.60
2018-06-14T18:18:02.354Z,13.33
2018-06-14T18:20:36.769Z,11.60
2018-06-14T18:23:11.034Z,12.33
2018-06-14T18:25:45.463Z,12.17
2018-06-14T18:28:19.635Z,11.87
2018-06-14T18:30:54.110Z,12.47
2018-06-14T18:33:28.262Z,13.30
2018-06-14T18:36:02.700Z,12.03
2018-06-14T18:38:37.010Z,12.33
2018-06-14T18:41:11.416Z,12.27
2018-06-14T18:43:45.522Z,12.60
2018-06-14T18:46:19.821Z,11.47
2018-06-14T18:48:54.096Z,11.57
2018-06-14T18:51:28.486Z,10.67
2018-06-14T18:54:02.738Z,12.20
2018-06-14T18:56:36.926Z,11.70
2018-06-14T18:59:11.210Z,10.60
2018-06-14T19:01:45.601Z,10.77
2018-06-14T19:04:19.895Z,11.10
2018-06-14T19:06:54.051Z,11.73
2018-06-14T19:09:28.530Z,11.43
2018-06-14T19:12:02.818Z,10.53
2018-06-14T19:14:37.088Z,10.53
2018-06-14T19:17:11.375Z,10.13
2018-06-14T19:19:45.659Z,10.50
2018-06-14T19:22:19.740Z,11.00
2018-06-14T19:24:53.918Z,10.20
2018-06-14T19:27:28.202Z,10.60
2018-06-14T19:30:02.542Z,10.37
2018-06-14T19:32:36.668Z,10.07
2018-06-14T19:35:10.930Z,11.00
2018-06-14T19:37:45.326Z,10.70
2018-06-14T19:40:19.494Z,9.60
2018-06-14T19:42:53.807Z,9.80
2018-06-14T19:45:28.027Z,10.23
2018-06-14T19:48:02.186Z,10.47
2018-06-14T19:50:36.527Z,10.27
2018-06-14T19:53:10.773Z,10.63
2018-06-14T19:55:45.105Z,10.50
2018-06-14T19:58:19.226Z,9.93
2018-06-14T20:00:53.464Z,10.13
2018-06-14T20:03:27.738Z,9.77
2018-06-14T20:06:02.076Z,9.50
2018-06-14T20:08:36.408Z,10.90
2018-06-14T20:11:10.712Z,12.00
2018-06-14T20:13:45.003Z,11.80
2018-06-14T20:16:19.295Z,12.27
2018-06-14T20:18:53.511Z,11.87
2018-06-14T20:21:27.741Z,12.13
2018-06-14T20:24:02.107Z,11.00
2018-06-14T20:26:36.460Z,11.50
2018-06-14T20:29:10.582Z,10.90
2018-06-14T20:31:44.810Z,11.33
2018-06-14T20:34:19.277Z,11.43
2018-06-14T20:36:53.734Z,12.63
2018-06-14T20:39:28.067Z,10.87
2018-06-14T20:42:02.497Z,10.90
2018-06-14T20:44:36.833Z,10.97
2018-06-14T20:47:10.990Z,11.20
2018-06-14T20:53:20.120Z,11.20
2018-06-14T20:56:11.794Z,10.70
2018-06-14T20:58:47.080Z,11.43
2018-06-14T21:02:17.080Z,10.93
2018-06-14T21:04:51.239Z,11.63
2018-06-14T21:10:14.798Z,11.63
2018-06-14T21:13:07.337Z,11.33
2018-06-14T21:16:00.355Z,11.37
2018-06-14T21:21:44.037Z,12.50
2018-06-14T21:24:18.350Z,11.73
2018-06-14T21:26:52.740Z,12.20
2018-06-14T21:29:27.018Z,13.10
2018-06-14T21:32:01.267Z,12.60
2018-06-14T21:34:35.431Z,12.87
2018-06-14T21:37:09.797Z,14.07
2018-06-14T21:39:43.940Z,13.67
2018-06-14T21:42:18.336Z,14.63
2018-06-14T21:44:52.594Z,15.37
2018-06-14T21:47:26.970Z,15.07
2018-06-14T21:50:01.167Z,14.77
2018-06-14T21:52:35.351Z,15.20
2018-06-14T21:55:09.605Z,15.47
2018-06-14T21:57:43.863Z,15.90
2018-06-14T22:00:18.196Z,16.23
2018-06-14T22:02:57.939Z,16.17
2018-06-14T22:05:32.086Z,15.73
2018-06-14T22:08:06.370Z,17.27
2018-06-14T22:10:40.664Z,15.67
2018-06-14T22:13:14.976Z,17.33
2018-06-14T22:15:49.277Z,16.40
2018-06-14T22:18:23.547Z,17.27
2018-06-14T22:20:57.864Z,17.60
2018-06-14T22:23:32.171Z,17.13
2018-06-14T22:26:06.468Z,18.00
2018-06-14T22:28:40.802Z,19.10
2018-06-14T22:31:15.084Z,17.33
2018-06-14T22:34:00.919Z,17.33
2018-06-14T22:36:35.194Z,16.53
2018-06-14T22:39:09.527Z,17.10
2018-06-14T22:41:43.862Z,18.37
2018-06-14T22:44:18.250Z,18.53
2018-06-14T22:46:52.509Z,19.53
2018-06-14T22:49:26.814Z,20.23
2018-06-14T22:52:47.545Z,20.57
2018-06-14T22:55:22.803Z,20.40
2018-06-14T22:57:57.051Z,20.53
2018-06-14T23:00:47.835Z,21.60
2018-06-14T23:03:22.013Z,23.80
2018-06-14T23:05:56.154Z,24.97
2018-06-14T23:08:30.414Z,23.47
2018-06-14T23:11:16.120Z,23.67
2018-06-14T23:13:50.616Z,24.60
2018-06-14T23:16:24.795Z,24.27
2018-06-14T23:18:59.022Z,23.87
2018-06-14T23:21:33.354Z,23.83
2018-06-14T23:24:07.695Z,24.97
2018-06-14T23:26:41.867Z,25.30
2018-06-14T23:29:16.194Z,27.20
2018-06-14T23:31:50.375Z,26.50
2018-06-14T23:34:24.659Z,25.37
2018-06-14T23:36:58.967Z,25.40
2018-06-14T23:39:33.199Z,27.37
2018-06-14T23:42:07.517Z,28.60
2018-06-14T23:44:41.684Z,29.37
2018-06-14T23:47:15.999Z,27.83
2018-06-14T23:49:50.523Z,27.90
2018-06-14T23:52:24.823Z,30.00
2018-06-14T23:54:59.050Z,27.53
2018-06-14T23:57:33.382Z,30.83
